createdAt,value
2022-10-05T00:03:48.506Z,65806.78
2022-10-05T00:08:56.746Z,65816.94
2022-10-05T00:14:00.961Z,65787.66
2022-10-05T00:19:16.741Z,65797.69
2022-10-05T00:24:21.753Z,65782.81
2022-10-05T00:29:26.047Z,65760.72
2022-10-05T00:34:35.264Z,65755.59
2022-10-05T00:39:40.624Z,65767.34
2022-10-05T00:44:51.565Z,65785.53
2022-10-05T00:50:30.936Z,65784.22
2022-10-05T00:55:48.969Z,65765.09
2022-10-05T01:01:01.650Z,65773.63
2022-10-05T01:06:17.374Z,65764.09
2022-10-05T01:11:30.457Z,65795.66
2022-10-05T01:16:46.861Z,65771.31
2022-10-05T01:22:02.481Z,65769.56
2022-10-05T01:27:38.142Z,65765.28
2022-10-05T01:32:51.128Z,65780.06
2022-10-05T01:38:12.642Z,65757.72
2022-10-05T01:43:33.940Z,65785.91
2022-10-05T01:48:49.559Z,65759.22
2022-10-05T01:54:06.139Z,65759.13
2022-10-05T01:59:24.806Z,65749.16
2022-10-05T02:10:12.802Z,65740.53
2022-10-05T02:15:24.463Z,65760.91
2022-10-05T02:20:36.010Z,65790.22
2022-10-05T02:25:48.710Z,65752.28
2022-10-05T02:31:03.609Z,65741.78
2022-10-05T02:36:14.461Z,65770.53
2022-10-05T02:41:32.308Z,65737.84
2022-10-05T02:46:44.987Z,65767.34
2022-10-05T02:51:56.464Z,65772.66
2022-10-05T02:57:11.240Z,65787.66
2022-10-05T03:02:27.694Z,65731.00
2022-10-05T03:07:38.888Z,65747.81
2022-10-05T03:12:52.984Z,65739.56
2022-10-05T03:18:13.572Z,65778.47
2022-10-05T03:23:35.125Z,65757.19
2022-10-05T03:28:52.992Z,65812.66
2022-10-05T03:34:07.746Z,65780.16
2022-10-05T03:39:21.023Z,65773.19
2022-10-05T03:44:38.726Z,65752.38
2022-10-05T03:50:13.229Z,65762.50
2022-10-05T03:55:26.430Z,65803.03
2022-10-05T04:00:33.498Z,65843.22
2022-10-05T04:05:50.667Z,65807.97
2022-10-05T04:11:06.180Z,65829.88
2022-10-05T04:16:17.109Z,65805.81
2022-10-05T04:21:27.559Z,65851.78
2022-10-05T04:26:39.557Z,65774.63
2022-10-05T04:32:04.963Z,65778.88
2022-10-05T04:37:20.460Z,65760.19
2022-10-05T04:42:32.806Z,65756.00
2022-10-05T04:48:08.613Z,65783.16
2022-10-05T04:53:28.327Z,65833.59
2022-10-05T04:58:52.925Z,65854.97
2022-10-05T05:04:20.962Z,65940.97
2022-10-05T05:10:12.655Z,65861.84
2022-10-05T05:15:37.912Z,65868.25
2022-10-05T05:20:53.188Z,65849.66
2022-10-05T05:26:09.107Z,65867.09
2022-10-05T05:31:29.805Z,65873.59
2022-10-05T05:36:59.295Z,65857.31
2022-10-05T05:42:20.749Z,65905.06
2022-10-05T05:47:35.455Z,65930.38
2022-10-05T05:52:44.396Z,65993.94
2022-10-05T05:57:54.496Z,65975.75
2022-10-05T06:03:05.970Z,65992.44
2022-10-05T06:08:18.085Z,66045.44
2022-10-05T06:13:30.625Z,66041.06
2022-10-05T06:18:40.987Z,66060.34
2022-10-05T06:23:50.089Z,66054.44
2022-10-05T06:29:02.091Z,66087.22
2022-10-05T06:34:18.584Z,66156.75
2022-10-05T06:39:38.638Z,66160.69
2022-10-05T06:44:53.611Z,66185.25
2022-10-05T06:50:16.920Z,66244.78
2022-10-05T06:55:43.516Z,66245.75
2022-10-05T07:00:54.139Z,66236.63
2022-10-05T07:06:07.687Z,66280.25
2022-10-05T07:11:26.462Z,66305.44
2022-10-05T07:16:40.656Z,66290.34
2022-10-05T07:22:02.107Z,66253.97
2022-10-05T07:27:14.523Z,66239.41
2022-10-05T07:32:34.746Z,66284.00
2022-10-05T07:37:57.989Z,66275.78
2022-10-05T07:43:22.853Z,66296.25
2022-10-05T07:48:47.146Z,66349.81
2022-10-05T07:54:04.315Z,66374.03
2022-10-05T07:59:16.560Z,66377.81
2022-10-05T08:04:26.372Z,66379.41
2022-10-05T08:09:40.695Z,66406.69
2022-10-05T08:14:52.766Z,66407.50
2022-10-05T08:20:06.821Z,66412.16
2022-10-05T08:25:21.466Z,66367.69
2022-10-05T08:30:26.143Z,66417.09
2022-10-05T08:35:37.718Z,66446.53
2022-10-05T08:41:07.434Z,66489.41
2022-10-05T08:46:31.806Z,66503.47
2022-10-05T08:52:12.382Z,66562.59
2022-10-05T08:57:44.849Z,66564.75
2022-10-05T09:03:12.465Z,66596.91
2022-10-05T09:08:41.590Z,66603.44
2022-10-05T09:14:15.644Z,66584.09
2022-10-05T09:19:44.087Z,66659.50
2022-10-05T09:24:59.702Z,66695.94
2022-10-05T09:30:24.610Z,66609.41
2022-10-05T09:35:52.597Z,66674.41
2022-10-05T09:41:31.600Z,66677.66
2022-10-05T09:46:51.208Z,66634.63
2022-10-05T09:52:17.939Z,66688.97
2022-10-05T09:58:10.438Z,66643.13
2022-10-05T10:03:50.237Z,66666.41
2022-10-05T10:09:27.166Z,66702.56
2022-10-05T10:15:08.377Z,66692.72
2022-10-05T10:20:33.184Z,66705.47
2022-10-05T10:25:55.246Z,66692.72
2022-10-05T10:31:24.857Z,66659.28
2022-10-05T10:36:57.321Z,66652.28
2022-10-05T10:42:26.488Z,66666.88
2022-10-05T10:48:05.141Z,66720.75
2022-10-05T10:53:26.511Z,66739.06
2022-10-05T10:59:09.461Z,66741.16
2022-10-05T11:04:43.929Z,66813.13
2022-10-05T11:10:19.932Z,66762.25
2022-10-05T11:16:19.573Z,66744.91
2022-10-05T11:21:45.091Z,66822.44
2022-10-05T11:27:13.401Z,66849.88
2022-10-05T11:32:42.343Z,66857.50
2022-10-05T11:38:04.967Z,66808.97
2022-10-05T11:43:42.350Z,66841.28
2022-10-05T11:49:08.076Z,66817.03
2022-10-05T11:54:58.400Z,66814.97
2022-10-05T12:00:13.170Z,66739.38
2022-10-05T12:05:22.320Z,66778.81
2022-10-05T12:10:35.943Z,66771.28
2022-10-05T12:15:48.528Z,66817.59
2022-10-05T12:20:57.539Z,66918.44
2022-10-05T12:26:06.228Z,66881.81
2022-10-05T12:31:24.495Z,66900.53
2022-10-05T12:36:52.427Z,66878.50
2022-10-05T12:42:10.442Z,66873.03
2022-10-05T12:47:23.887Z,66927.47
2022-10-05T12:52:39.388Z,66848.81
2022-10-05T12:57:57.755Z,66855.81
2022-10-05T13:03:10.552Z,66883.75
2022-10-05T13:08:21.291Z,66935.22
2022-10-05T13:13:39.410Z,66896.34
2022-10-05T13:18:59.088Z,66867.13
2022-10-05T13:24:10.806Z,66856.19
2022-10-05T13:29:20.252Z,66844.97
2022-10-05T13:34:32.984Z,66789.56
2022-10-05T13:39:55.544Z,66796.63
2022-10-05T13:45:04.605Z,66776.66
2022-10-05T13:50:18.868Z,66765.88
2022-10-05T13:55:36.084Z,66713.63
2022-10-05T14:00:48.036Z,66771.19
2022-10-05T14:05:58.228Z,66803.03
2022-10-05T14:11:25.873Z,66822.97
2022-10-05T14:16:33.810Z,66820.91
2022-10-05T14:21:50.978Z,66807.34
2022-10-05T14:26:57.639Z,66793.88
2022-10-05T14:32:04.189Z,66751.28
2022-10-05T14:37:21.407Z,66806.34
2022-10-05T14:42:28.113Z,66826.13
2022-10-05T14:47:34.413Z,66763.28
2022-10-05T14:52:41.256Z,66734.06
2022-10-05T14:57:55.717Z,66709.31
2022-10-05T15:03:27.658Z,66701.41
2022-10-05T15:08:50.815Z,66707.16
2022-10-05T15:13:57.629Z,66700.78
2022-10-05T15:19:08.368Z,66723.91
2022-10-05T15:24:20.240Z,66670.56
2022-10-05T15:29:42.537Z,66621.63
2022-10-05T15:34:56.671Z,66595.84
2022-10-05T15:40:06.433Z,66570.09
2022-10-05T15:45:23.561Z,66573.78
2022-10-05T15:50:32.608Z,66542.16
2022-10-05T15:55:51.950Z,66517.44
2022-10-05T16:00:59.837Z,66543.75
2022-10-05T16:06:27.797Z,66504.53
2022-10-05T16:11:45.154Z,66498.53
2022-10-05T16:17:05.980Z,66480.53
2022-10-05T16:22:23.007Z,66490.56
2022-10-05T16:27:39.699Z,66490.56
2022-10-05T16:32:50.155Z,66479.84
2022-10-05T16:38:05.864Z,66490.56
2022-10-05T16:43:27.965Z,66492.72
2022-10-05T16:48:40.846Z,66480.53
2022-10-05T16:53:49.731Z,66463.72
2022-10-05T16:59:06.738Z,66483.66
2022-10-05T17:04:27.061Z,66464.78
2022-10-05T17:10:10.203Z,66455.19
2022-10-05T17:15:33.079Z,66473.91
2022-10-05T17:20:47.205Z,66449.31
2022-10-05T17:25:56.853Z,66471.84
2022-10-05T17:31:16.653Z,66456.66
2022-10-05T17:36:20.754Z,66470.16
2022-10-05T17:41:26.686Z,66445.56
2022-10-05T17:46:42.557Z,66449.22
2022-10-05T17:52:23.958Z,66453.44
2022-10-05T17:57:28.308Z,66454.66
2022-10-05T18:02:44.223Z,66447.63
2022-10-05T18:07:50.169Z,66479.75
2022-10-05T18:13:19.549Z,66468.94
2022-10-05T18:18:59.346Z,66428.81
2022-10-05T18:24:24.289Z,66438.94
2022-10-05T18:30:06.561Z,66452.97
2022-10-05T18:35:16.027Z,66460.41
2022-10-05T18:40:32.099Z,66472.22
2022-10-05T18:45:48.318Z,66434.72
2022-10-05T18:51:00.170Z,66471.84
2022-10-05T18:56:17.471Z,66422.44
2022-10-05T19:01:50.881Z,66453.91
2022-10-05T19:07:11.516Z,66416.47
2022-10-05T19:12:27.167Z,66422.91
2022-10-05T19:17:47.585Z,66404.63
2022-10-05T19:23:10.154Z,66422.44
2022-10-05T19:28:29.031Z,66409.50
2022-10-05T19:33:44.948Z,66424.59
2022-10-05T19:39:00.221Z,66424.97
2022-10-05T19:44:17.993Z,66441.09
2022-10-05T19:49:48.939Z,66423.81
2022-10-05T19:55:15.050Z,66385.84
2022-10-05T20:00:26.206Z,66393.75
2022-10-05T20:05:30.360Z,66378.94
2022-10-05T20:10:35.152Z,66442.84
2022-10-05T20:15:57.990Z,66457.19
2022-10-05T20:21:01.941Z,66427.13
2022-10-05T20:26:24.037Z,66419.69
2022-10-05T20:31:29.442Z,66421.31
2022-10-05T20:36:34.139Z,66406.16
2022-10-05T20:41:38.078Z,66407.34
2022-10-05T20:46:43.336Z,66447.97
2022-10-05T20:51:47.550Z,66442.25
2022-10-05T20:56:51.807Z,66428.91
2022-10-05T21:01:59.050Z,66421.84
2022-10-05T21:07:03.880Z,66396.94
2022-10-05T21:12:08.075Z,66448.69
2022-10-05T21:17:13.534Z,66381.63
2022-10-05T21:22:17.738Z,66424.34
2022-10-05T21:27:21.748Z,66464.19
2022-10-05T21:32:27.822Z,66417.00
2022-10-05T21:37:31.506Z,66411.28
2022-10-05T21:42:35.604Z,66409.84
2022-10-05T21:47:41.365Z,66402.50
2022-10-05T21:52:45.428Z,66406.81
2022-10-05T21:57:49.565Z,66406.97
2022-10-05T22:02:55.194Z,66423.53
2022-10-05T22:07:59.259Z,66397.03
2022-10-05T22:13:04.964Z,66432.50
2022-10-05T22:18:14.375Z,66422.91
2022-10-05T22:23:18.509Z,66415.47
2022-10-05T22:28:22.469Z,66433.66
2022-10-05T22:33:27.836Z,66445.38
2022-10-05T22:38:32.076Z,66442.78
2022-10-05T22:43:36.267Z,66443.16
2022-10-05T22:48:41.763Z,66435.72
2022-10-05T22:53:45.787Z,66477.66
2022-10-05T22:58:51.058Z,66446.97
2022-10-05T23:03:57.389Z,66499.16
2022-10-05T23:09:01.358Z,66449.75
2022-10-05T23:14:05.249Z,66449.75
2022-10-05T23:19:12.911Z,66443.91
2022-10-05T23:24:16.754Z,66450.28
2022-10-05T23:29:20.637Z,66469.00
2022-10-05T23:34:27.380Z,66450.84
2022-10-05T23:39:31.472Z,66428.28
2022-10-05T23:44:35.229Z,66425.06
2022-10-05T23:49:40.497Z,66429.34
2022-10-05T23:54:44.612Z,66418.63
2022-10-05T23:59:50.325Z,66436.84
